Time;durP1;ratioP1;P1;durP2;ratioP2;P2;SDS_P1;SDS_P2;PMS_P1;PMS_P2;Temp;Humidity;BMP_temperature;BMP_pressure;BME280_temperature;BME280_humidity;BME280_pressure;Samples;Min_cycle;Max_cycle;Signal;HPM_P1;HPM_P2
2022/09/15 00:02:18;;;;;;;2.10;1.80;;;;;;;14.90;79.32;97756.02;104818;1274;75758;-24
2022/09/15 00:04:46;;;;;;;3.80;2.10;;;;;;;15.31;78.83;97755.58;104787;1271;77156;-24
2022/09/15 00:07:13;;;;;;;2.30;1.80;;;;;;;15.67;77.09;97752.87;104774;1271;75116;-24
2022/09/15 00:09:40;;;;;;;2.20;2.00;;;;;;;15.67;76.98;97751.36;104923;1274;61905;-24
2022/09/15 00:12:07;;;;;;;3.80;2.20;;;;;;;15.48;77.07;97743.46;105059;1274;61955;-24
2022/09/15 00:14:34;;;;;;;4.70;2.70;;;;;;;15.18;77.99;97738.51;104976;1271;75451;-24
2022/09/15 00:17:01;;;;;;;3.00;1.80;;;;;;;15.02;78.65;97734.68;104685;1274;77383;-24
2022/09/15 00:19:28;;;;;;;3.90;1.90;;;;;;;15.34;78.49;97733.79;104705;1271;73355;-25
2022/09/15 00:21:55;;;;;;;3.30;2.00;;;;;;;15.63;77.07;97732.20;104808;1271;63001;-24
2022/09/15 00:24:22;;;;;;;1.70;1.60;;;;;;;15.65;76.86;97725.88;104790;1271;63298;-24
2022/09/15 00:26:49;;;;;;;4.70;2.50;;;;;;;15.51;77.03;97720.27;104988;1272;75558;-24
2022/09/15 00:29:16;;;;;;;3.30;2.20;;;;;;;15.30;77.29;97710.02;105052;1271;77088;-24
2022/09/15 00:31:43;;;;;;;2.70;1.30;;;;;;;15.15;77.78;97706.14;104857;1274;74401;-24
2022/09/15 00:34:11;;;;;;;2.10;1.30;;;;;;;15.56;77.82;97707.04;104965;1271;62059;-24
2022/09/15 00:36:38;;;;;;;4.20;1.70;;;;;;;16.02;76.01;97702.04;104885;1271;61689;-24
2022/09/15 00:39:05;;;;;;;2.00;1.70;;;;;;;15.98;75.71;97699.40;104928;1271;76580;-24
2022/09/15 00:41:32;;;;;;;4.20;1.80;;;;;;;15.72;76.43;97700.66;105078;1274;75242;-24
2022/09/15 00:44:02;;;;;;;2.10;1.90;;;;;;;15.49;76.77;97702.35;104937;1271;74344;-24
2022/09/15 00:46:32;;;;;;;2.90;2.30;;;;;;;15.20;77.87;97699.84;104760;1274;63246;-24
2022/09/15 00:49:06;;;;;;;2.50;1.50;;;;;;;15.01;78.40;97699.31;104868;1274;62853;-24
2022/09/15 00:52:05;;;;;;;2.00;1.80;;;;;;;15.34;78.65;97700.94;104719;1274;75565;-24
2022/09/15 00:54:43;;;;;;;3.20;2.20;;;;;;;15.58;77.37;97696.16;105087;1274;77185;-24
2022/09/15 00:57:14;;;;;;;4.50;2.10;;;;;;;15.35;77.98;97702.65;104804;1274;75370;-24
2022/09/15 00:59:42;;;;;;;3.50;2.30;;;;;;;15.16;78.63;97705.08;105062;1272;61073;-24
2022/09/15 01:02:14;;;;;;;2.40;2.10;;;;;;;15.02;78.55;97707.58;104765;1274;62727;-25
2022/09/15 01:04:41;;;;;;;2.90;1.40;;;;;;;14.81;79.81;97707.86;104899;1272;76609;-24
2022/09/15 01:07:11;;;;;;;2.50;1.70;;;;;;;15.20;79.45;97711.16;104837;1274;76955;-24
2022/09/15 01:09:44;;;;;;;2.00;1.70;;;;;;;15.59;77.86;97708.68;105008;1274;74445;-24
2022/09/15 01:12:11;;;;;;;2.10;1.90;;;;;;;15.52;77.51;97709.52;105063;1272;61166;-24
2022/09/15 01:14:38;;;;;;;3.70;2.10;;;;;;;15.25;78.41;97715.42;104878;1270;61156;-24
2022/09/15 01:17:28;;;;;;;3.10;2.00;;;;;;;14.96;79.83;97719.14;105112;1271;75418;-24
2022/09/15 01:20:37;;;;;;;2.10;1.50;;;;;;;14.76;80.96;97722.95;105030;1272;76815;-25
2022/09/15 01:23:36;;;;;;;2.50;1.80;;;;;;;15.28;79.27;97728.73;104891;1274;74256;-24
2022/09/15 01:26:18;;;;;;;2.40;2.20;;;;;;;15.30;79.21;97724.70;105024;1272;61847;-24
2022/09/15 01:29:07;;;;;;;4.00;2.50;;;;;;;15.10;79.95;97718.83;105006;1271;61924;-24
2022/09/15 01:33:02;;;;;;;2.40;2.00;;;;;;;14.81;81.01;97703.45;105113;1272;76523;-24
2022/09/15 01:34:26;;;;;;;2.80;1.30;;;;;;;14.77;81.24;97700.92;105072;1271;77624;-25
2022/09/15 01:36:54;;;;;;;2.00;1.60;;;;;;;15.29;80.08;97699.92;104834;1272;75962;-24
2022/09/15 01:39:27;;;;;;;3.00;2.00;;;;;;;15.52;78.49;97709.75;105134;1271;61958;-24
2022/09/15 01:41:58;;;;;;;2.20;1.90;;;;;;;15.32;78.73;97709.32;104892;1274;61853;-24
2022/09/15 01:44:35;;;;;;;3.70;2.30;;;;;;;15.15;79.18;97711.39;104828;1271;74527;-24
2022/09/15 01:47:05;;;;;;;3.50;1.90;;;;;;;14.93;79.90;97710.92;105106;1271;75666;-24
2022/09/15 01:49:38;;;;;;;4.40;1.40;;;;;;;14.81;80.60;97708.38;104877;1274;73031;-24
2022/09/15 01:52:06;;;;;;;1.70;1.60;;;;;;;15.24;79.80;97699.89;104560;1274;62792;-24
2022/09/15 01:54:39;;;;;;;3.90;1.90;;;;;;;15.45;78.93;97697.31;104666;1274;62045;-24
2022/09/15 01:57:06;;;;;;;3.80;2.40;;;;;;;15.27;79.15;97689.34;104627;1274;76612;-24
2022/09/15 01:59:33;;;;;;;5.00;2.50;;;;;;;15.04;80.17;97682.67;104758;1274;76816;-24
2022/09/15 02:02:05;;;;;;;2.40;1.60;;;;;;;14.79;81.27;97680.83;104778;1271;74900;-24
2022/09/15 02:04:43;;;;;;;2.80;1.90;;;;;;;14.97;81.25;97679.55;104576;1275;63210;-24
2022/09/15 02:07:37;;;;;;;3.00;2.40;;;;;;;15.14;80.29;97679.02;104702;1273;61588;-24
2022/09/15 02:10:10;;;;;;;2.60;2.10;;;;;;;14.92;80.84;97670.66;104839;1274;75721;-24
2022/09/15 02:12:52;;;;;;;2.90;2.30;;;;;;;14.61;82.42;97672.05;104931;1274;76199;-24
2022/09/15 02:15:34;;;;;;;4.20;1.60;;;;;;;14.62;82.99;97667.69;105015;1272;74315;-24
2022/09/15 02:18:02;;;;;;;3.70;2.40;;;;;;;15.06;81.29;97664.79;105012;1274;62827;-24
2022/09/15 02:20:38;;;;;;;4.40;2.60;;;;;;;15.10;80.60;97661.06;104675;1277;63126;-24
2022/09/15 02:23:09;;;;;;;9.00;3.50;;;;;;;14.90;80.92;97662.34;104775;1272;76341;-24
2022/09/15 02:25:44;;;;;;;3.30;2.20;;;;;;;14.62;82.27;97663.05;104748;1275;77356;-24
2022/09/15 02:28:12;;;;;;;4.00;2.50;;;;;;;14.73;82.48;97656.15;104838;1274;74670;-24
2022/09/15 02:30:40;;;;;;;3.10;2.60;;;;;;;15.02;81.07;97654.80;105099;1274;63072;-24
2022/09/15 02:33:10;;;;;;;3.20;2.90;;;;;;;15.06;80.92;97647.97;104834;1274;63258;-24
2022/09/15 02:35:38;;;;;;;4.20;2.60;;;;;;;14.90;81.04;97639.69;104806;1274;75137;-24
2022/09/15 02:38:06;;;;;;;8.80;3.30;;;;;;;14.59;83.00;97642.42;105067;1274;76044;-24
2022/09/15 02:40:33;;;;;;;6.50;3.10;;;;;;;14.73;82.99;97641.56;105096;1274;75158;-24
2022/09/15 02:43:04;;;;;;;6.80;3.50;;;;;;;14.93;82.23;97642.83;104940;1271;62803;-24
2022/09/15 02:45:31;;;;;;;5.00;3.80;;;;;;;14.78;82.37;97642.36;104953;1274;63276;-24
2022/09/15 02:47:58;;;;;;;3.80;2.80;;;;;;;14.64;82.70;97647.96;104993;1272;75486;-24
2022/09/15 02:50:25;;;;;;;4.80;3.20;;;;;;;14.61;83.65;97638.55;105060;1272;76989;-24
2022/09/15 02:52:56;;;;;;;6.00;3.60;;;;;;;14.94;82.31;97634.61;105026;1274;74088;-24
2022/09/15 02:55:26;;;;;;;4.40;3.30;;;;;;;14.99;81.94;97641.75;104774;1272;61811;-24
2022/09/15 02:57:54;;;;;;;5.90;3.20;;;;;;;14.90;81.93;97647.35;104695;1274;61942;-24
2022/09/15 03:00:21;;;;;;;5.90;4.00;;;;;;;14.71;82.62;97655.37;104655;1274;76569;-24
2022/09/15 03:02:50;;;;;;;6.70;3.20;;;;;;;14.54;83.99;97661.05;104770;1274;75717;-24
2022/09/15 03:05:28;;;;;;;6.00;3.10;;;;;;;14.83;83.59;97667.20;104664;1271;74272;-24
2022/09/15 03:07:55;;;;;;;7.40;3.50;;;;;;;15.02;82.31;97668.59;104629;1271;62395;-24
2022/09/15 03:10:23;;;;;;;6.10;3.60;;;;;;;14.91;82.58;97668.84;104767;1271;61886;-24
2022/09/15 03:12:51;;;;;;;6.30;3.60;;;;;;;14.75;83.31;97669.58;104655;1271;75530;-24
2022/09/15 03:15:21;;;;;;;5.30;3.10;;;;;;;14.66;83.68;97671.86;104728;1271;77058;-24
2022/09/15 03:17:48;;;;;;;3.50;2.80;;;;;;;15.13;82.19;97673.44;104889;1274;75266;-24
2022/09/15 03:20:17;;;;;;;4.50;2.90;;;;;;;15.41;81.30;97669.16;105080;1274;62143;-24
2022/09/15 03:22:44;;;;;;;6.70;3.00;;;;;;;15.42;80.93;97671.39;105083;1271;61765;-24
2022/09/15 03:25:12;;;;;;;3.90;3.10;;;;;;;15.31;80.98;97667.73;104772;1271;76006;-24
2022/09/15 03:27:39;;;;;;;5.00;3.30;;;;;;;15.08;81.11;97662.48;104755;1274;77045;-24
2022/09/15 03:30:07;;;;;;;7.40;2.60;;;;;;;14.87;82.36;97657.64;104962;1272;75194;-24
2022/09/15 03:32:35;;;;;;;4.00;2.70;;;;;;;15.26;81.82;97657.09;104844;1274;63045;-24
2022/09/15 03:35:03;;;;;;;6.10;3.50;;;;;;;15.52;80.87;97652.08;104697;1271;62809;-24
2022/09/15 03:37:30;;;;;;;4.70;3.20;;;;;;;15.51;80.86;97649.48;104798;1271;76388;-24
2022/09/15 03:39:57;;;;;;;6.10;3.50;;;;;;;15.26;81.65;97649.99;104771;1271;76076;-24
2022/09/15 03:42:24;;;;;;;4.80;3.10;;;;;;;14.90;83.05;97650.70;104712;1271;75402;-24
2022/09/15 03:44:51;;;;;;;3.70;2.50;;;;;;;14.75;84.19;97641.44;104744;1274;64371;-24
2022/09/15 03:47:18;;;;;;;3.90;2.70;;;;;;;15.14;83.29;97635.55;104790;1271;62033;-24
2022/09/15 03:49:46;;;;;;;5.50;2.80;;;;;;;15.35;82.33;97626.31;104828;1271;75623;-24
2022/09/15 03:52:13;;;;;;;6.60;3.50;;;;;;;15.36;81.90;97617.35;104989;1272;77377;-24
2022/09/15 03:54:40;;;;;;;4.00;3.30;;;;;;;15.18;81.54;97618.14;104949;1272;74265;-24
2022/09/15 03:57:07;;;;;;;3.20;2.10;;;;;;;15.03;81.83;97616.02;105059;1271;64470;-24
2022/09/15 03:59:34;;;;;;;4.50;2.40;;;;;;;15.45;81.39;97610.39;105039;1271;62192;-24
2022/09/15 04:02:02;;;;;;;4.10;2.40;;;;;;;15.94;79.99;97602.68;105057;1274;74463;-24
2022/09/15 04:04:30;;;;;;;5.70;3.00;;;;;;;15.95;79.18;97596.26;104876;1271;77012;-24
2022/09/15 04:06:57;;;;;;;5.00;2.90;;;;;;;15.73;79.37;97595.58;104802;1271;73023;-24
2022/09/15 04:09:24;;;;;;;5.10;3.90;;;;;;;15.44;80.15;97592.51;104746;1272;62045;-24
2022/09/15 04:11:51;;;;;;;7.90;2.90;;;;;;;15.16;81.01;97597.39;104773;1274;61882;-24
2022/09/15 04:14:19;;;;;;;4.10;3.50;;;;;;;15.36;81.84;97597.86;104724;1272;76514;-24
2022/09/15 04:16:46;;;;;;;4.40;3.20;;;;;;;15.50;81.12;97594.76;104713;1272;76387;-24
2022/09/15 04:19:13;;;;;;;10.60;3.50;;;;;;;15.38;81.56;97592.07;104946;1274;75458;-24
2022/09/15 04:21:41;;;;;;;6.10;3.90;;;;;;;15.12;82.73;97595.45;105105;1272;63091;-24
2022/09/15 04:24:08;;;;;;;4.40;3.40;;;;;;;14.86;83.46;97595.59;105034;1274;61783;-24
2022/09/15 04:26:35;;;;;;;3.60;2.80;;;;;;;14.87;84.20;97598.38;105022;1274;76314;-24
2022/09/15 04:29:04;;;;;;;3.10;2.70;;;;;;;15.32;82.76;97594.40;105134;1272;77077;-24
2022/09/15 04:31:31;;;;;;;6.20;3.40;;;;;;;15.49;81.70;97598.67;105064;1272;74180;-25
2022/09/15 04:33:59;;;;;;;5.50;3.80;;;;;;;15.31;82.01;97606.30;105124;1271;63039;-24
2022/09/15 04:36:27;;;;;;;6.20;3.70;;;;;;;14.96;83.66;97616.52;105089;1271;63078;-24
2022/09/15 04:38:55;;;;;;;2.80;2.40;;;;;;;14.80;84.47;97617.50;105189;1271;75526;-24
2022/09/15 04:41:22;;;;;;;5.10;3.30;;;;;;;15.26;83.46;97619.53;104773;1271;77135;-24
2022/09/15 04:43:50;;;;;;;4.30;3.40;;;;;;;15.67;81.84;97612.11;104868;1271;74332;-24
2022/09/15 04:46:17;;;;;;;6.40;3.70;;;;;;;15.68;81.33;97608.84;105032;1272;61767;-24
2022/09/15 04:48:45;;;;;;;4.90;3.70;;;;;;;15.50;81.93;97610.83;105147;1271;63088;-24
2022/09/15 04:51:14;;;;;;;5.80;4.10;;;;;;;15.25;82.65;97608.80;104928;1272;76583;-24
2022/09/15 04:53:41;;;;;;;6.90;3.10;;;;;;;15.07;83.90;97604.18;105092;1271;74942;-24
2022/09/15 04:56:14;;;;;;;4.20;3.60;;;;;;;15.52;83.36;97592.42;105126;1274;75109;-24
2022/09/15 04:58:46;;;;;;;5.80;4.30;;;;;;;15.89;81.03;97586.96;104807;1272;61704;-24
2022/09/15 05:01:18;;;;;;;6.60;4.30;;;;;;;15.78;81.32;97584.75;105126;1271;63055;-24
2022/09/15 05:03:46;;;;;;;6.60;5.00;;;;;;;15.47;82.35;97579.70;104989;1271;75207;-24
2022/09/15 05:06:15;;;;;;;6.90;4.10;;;;;;;15.33;83.37;97581.34;105079;1271;75937;-24
2022/09/15 05:08:45;;;;;;;4.00;3.50;;;;;;;15.61;83.24;97583.52;104702;1274;75431;-24
2022/09/15 05:11:12;;;;;;;6.00;4.30;;;;;;;15.95;81.54;97580.44;104923;1271;63105;-24
2022/09/15 05:13:40;;;;;;;6.00;4.30;;;;;;;15.93;81.57;97577.17;104783;1272;62314;-24
2022/09/15 05:16:10;;;;;;;5.60;4.90;;;;;;;15.78;81.71;97570.75;104748;1271;75676;-24
2022/09/15 05:18:38;;;;;;;5.70;4.00;;;;;;;15.53;82.73;97571.80;104855;1272;77080;-24
2022/09/15 05:21:06;;;;;;;4.40;3.90;;;;;;;15.78;82.72;97568.52;104998;1274;74041;-24
2022/09/15 05:23:34;;;;;;;4.80;3.80;;;;;;;16.06;81.74;97571.08;105012;1274;62016;-24
2022/09/15 05:26:04;;;;;;;7.00;4.30;;;;;;;16.05;81.36;97566.89;104828;1271;61728;-24
2022/09/15 05:28:32;;;;;;;5.70;5.00;;;;;;;15.83;81.83;97565.98;104747;1274;75334;-24
2022/09/15 05:30:59;;;;;;;8.20;4.00;;;;;;;15.54;83.35;97566.26;104600;1271;76849;-24
2022/09/15 05:33:26;;;;;;;5.80;3.70;;;;;;;15.87;82.72;97566.67;104926;1271;75392;-24
2022/09/15 05:35:55;;;;;;;5.60;4.30;;;;;;;16.16;81.47;97560.73;105073;1272;62911;-24
2022/09/15 05:38:23;;;;;;;5.00;4.40;;;;;;;16.17;81.33;97557.09;105022;1272;61664;-24
2022/09/15 05:40:50;;;;;;;6.00;4.70;;;;;;;15.87;81.77;97558.15;104873;1273;76486;-24
2022/09/15 05:43:17;;;;;;;3.70;3.30;;;;;;;15.71;82.67;97555.00;105078;1272;76739;-24
2022/09/15 05:45:53;;;;;;;5.00;3.50;;;;;;;15.98;82.50;97553.73;105073;1271;75766;-24
2022/09/15 05:48:20;;;;;;;5.40;4.10;;;;;;;16.29;81.14;97554.39;104839;1271;61666;-24
2022/09/15 05:50:49;;;;;;;5.20;4.20;;;;;;;16.19;81.02;97552.49;105105;1271;63002;-24
2022/09/15 05:53:16;;;;;;;6.10;4.40;;;;;;;15.88;82.21;97548.51;104670;1271;75449;-24
2022/09/15 05:55:43;;;;;;;2.50;2.30;;;;;;;15.71;83.96;97548.94;104812;1272;75047;-24
2022/09/15 05:58:10;;;;;;;4.40;3.90;;;;;;;16.08;82.57;97546.93;105059;1271;74302;-24
2022/09/15 06:00:37;;;;;;;5.10;3.90;;;;;;;16.31;81.91;97543.27;105031;1271;63349;-24
2022/09/15 06:03:04;;;;;;;4.80;4.30;;;;;;;16.24;82.25;97539.35;104950;1274;62828;-24
2022/09/15 06:05:32;;;;;;;6.50;5.00;;;;;;;16.10;82.60;97534.58;105075;1272;76568;-24
2022/09/15 06:07:59;;;;;;;4.20;2.90;;;;;;;16.10;82.46;97528.44;105065;1271;74868;-24
2022/09/15 06:10:26;;;;;;;5.00;3.70;;;;;;;16.58;82.01;97528.44;105135;1271;75668;-24
2022/09/15 06:12:53;;;;;;;6.40;4.00;;;;;;;16.99;80.23;97522.06;105086;1271;62073;-24
2022/09/15 06:15:21;;;;;;;7.40;4.30;;;;;;;17.03;79.65;97519.36;105091;1271;61968;-24
2022/09/15 06:17:48;;;;;;;5.20;4.70;;;;;;;16.89;79.67;97507.86;105087;1272;76536;-25
2022/09/15 06:20:16;;;;;;;5.60;4.20;;;;;;;16.71;79.76;97506.34;104836;1271;77077;-24
2022/09/15 06:22:46;;;;;;;3.60;3.30;;;;;;;16.58;80.93;97504.96;105087;1272;75520;-24
2022/09/15 06:25:13;;;;;;;4.00;3.30;;;;;;;17.07;80.16;97500.61;105058;1271;63592;-24
2022/09/15 06:27:41;;;;;;;5.70;4.30;;;;;;;17.41;78.71;97499.19;105081;1271;63249;-24
2022/09/15 06:30:09;;;;;;;5.80;4.50;;;;;;;17.27;78.47;97501.04;104794;1271;76550;-24
2022/09/15 06:32:36;;;;;;;5.50;4.80;;;;;;;17.08;78.86;97499.81;104645;1271;77078;-24
2022/09/15 06:35:05;;;;;;;6.30;4.90;;;;;;;16.83;79.68;97494.88;104886;1271;74298;-24
2022/09/15 06:37:33;;;;;;;3.30;2.50;;;;;;;16.68;80.66;97496.79;104578;1274;63381;-24
2022/09/15 06:40:01;;;;;;;4.70;3.30;;;;;;;17.07;79.94;97493.33;104876;1271;61974;-24
2022/09/15 06:42:28;;;;;;;4.20;3.00;;;;;;;17.38;78.51;97489.88;104990;1271;76736;-24
2022/09/15 06:44:55;;;;;;;3.20;2.90;;;;;;;17.17;78.86;97499.31;104655;1274;76944;-24
2022/09/15 06:47:22;;;;;;;4.60;3.30;;;;;;;16.81;79.94;97508.77;104703;1271;75700;-24
2022/09/15 06:49:51;;;;;;;5.40;2.60;;;;;;;16.32;82.18;97519.03;104932;1271;62782;-24
2022/09/15 06:52:19;;;;;;;2.50;2.00;;;;;;;16.24;83.34;97517.85;104643;1274;63029;-24
2022/09/15 06:54:46;;;;;;;3.70;2.80;;;;;;;16.57;81.95;97517.48;104780;1271;76741;-24
2022/09/15 06:57:13;;;;;;;3.50;2.60;;;;;;;16.61;81.93;97513.27;105048;1272;77057;-24
2022/09/15 06:59:41;;;;;;;2.70;2.50;;;;;;;16.44;82.40;97515.29;104808;1271;74443;-24
2022/09/15 07:02:08;;;;;;;3.40;3.10;;;;;;;16.31;83.18;97513.38;105131;1271;61779;-24
2022/09/15 07:04:36;;;;;;;1.50;1.30;;;;;;;16.35;83.40;97509.86;105154;1271;62763;-24
2022/09/15 07:07:03;;;;;;;2.10;1.60;;;;;;;16.97;81.94;97503.69;105120;1271;76391;-24
2022/09/15 07:09:30;;;;;;;2.00;1.80;;;;;;;17.47;78.89;97501.50;104926;1271;77154;-24
2022/09/15 07:11:57;;;;;;;2.30;2.10;;;;;;;17.43;78.84;97501.42;105088;1271;74151;-25
2022/09/15 07:14:24;;;;;;;2.30;2.00;;;;;;;16.96;80.37;97504.67;105003;1271;63138;-24
2022/09/15 07:16:52;;;;;;;2.80;2.60;;;;;;;16.85;81.19;97507.26;104796;1271;61732;-24
2022/09/15 07:19:19;;;;;;;2.40;1.50;;;;;;;16.68;81.94;97510.45;104845;1271;75607;-25
2022/09/15 07:21:46;;;;;;;2.00;1.80;;;;;;;16.97;81.72;97504.88;105070;1271;77322;-24
2022/09/15 07:24:13;;;;;;;2.90;2.10;;;;;;;17.19;79.55;97506.08;105065;1271;74511;-24
2022/09/15 07:26:40;;;;;;;2.70;2.20;;;;;;;16.98;80.37;97501.16;104956;1271;63458;-24
2022/09/15 07:29:08;;;;;;;2.50;2.20;;;;;;;16.98;80.58;97496.34;104997;1271;61937;-24
2022/09/15 07:31:36;;;;;;;2.10;1.30;;;;;;;16.95;80.65;97497.22;104782;1272;75505;-24
2022/09/15 07:34:04;;;;;;;1.90;1.70;;;;;;;17.32;80.07;97496.80;104814;1271;77107;-24
2022/09/15 07:36:31;;;;;;;2.00;1.80;;;;;;;17.68;78.72;97496.93;104961;1271;74401;-24
2022/09/15 07:38:58;;;;;;;2.40;2.20;;;;;;;17.53;78.83;97499.42;104783;1271;62775;-24
2022/09/15 07:41:27;;;;;;;2.40;2.20;;;;;;;17.51;79.21;97504.32;104759;1271;61791;-24
2022/09/15 07:43:56;;;;;;;2.40;1.70;;;;;;;17.32;79.85;97503.44;104741;1271;76574;-24
2022/09/15 07:46:24;;;;;;;1.80;1.70;;;;;;;17.31;80.55;97503.81;104991;1271;76983;-24
2022/09/15 07:48:55;;;;;;;1.90;1.70;;;;;;;17.78;79.94;97500.33;104947;1271;75503;-24
2022/09/15 07:51:22;;;;;;;2.50;2.20;;;;;;;17.83;78.31;97491.20;105003;1271;63250;-24
2022/09/15 07:53:50;;;;;;;3.10;2.80;;;;;;;17.69;78.36;97490.16;105088;1271;61820;-24
2022/09/15 07:56:17;;;;;;;1.70;1.60;;;;;;;17.31;80.46;97492.77;105021;1271;76740;-24
2022/09/15 07:58:48;;;;;;;2.30;2.10;;;;;;;17.59;79.50;97497.08;104762;1272;77119;-24
2022/09/15 08:01:15;;;;;;;2.30;2.10;;;;;;;17.54;77.97;97492.61;104977;1271;75332;-24
2022/09/15 08:03:45;;;;;;;2.50;2.30;;;;;;;17.32;79.69;97496.11;105128;1271;62765;-24
2022/09/15 08:06:12;;;;;;;2.70;2.50;;;;;;;17.25;79.62;97496.83;104418;1274;63035;-24
2022/09/15 08:08:39;;;;;;;3.40;1.70;;;;;;;17.06;79.89;97498.36;104715;1271;76596;-24
2022/09/15 08:11:07;;;;;;;3.00;2.00;;;;;;;17.16;80.56;97494.57;104744;1271;75932;-24
2022/09/15 08:13:35;;;;;;;2.30;2.10;;;;;;;17.58;78.77;97495.72;104632;1271;74351;-24
2022/09/15 08:16:28;;;;;;;2.60;2.40;;;;;;;17.75;78.65;97499.29;104710;1271;62232;-24
2022/09/15 08:18:56;;;;;;;3.00;2.60;;;;;;;17.71;78.79;97500.77;104702;1271;63262;-24
2022/09/15 08:21:23;;;;;;;1.40;1.30;;;;;;;17.64;79.14;97493.77;104907;1271;75514;-24
2022/09/15 08:23:54;;;;;;;2.10;1.80;;;;;;;18.19;78.52;97491.05;105113;1271;74763;-24
2022/09/15 08:26:22;;;;;;;2.20;2.00;;;;;;;18.71;75.97;97489.55;104959;1271;74303;-24
2022/09/15 08:28:49;;;;;;;2.60;2.40;;;;;;;18.64;74.91;97486.64;104777;1271;62068;-24
2022/09/15 08:31:17;;;;;;;2.70;2.50;;;;;;;18.54;75.60;97472.73;104785;1271;62829;-24
2022/09/15 08:33:48;;;;;;;2.60;2.40;;;;;;;18.55;76.82;97467.86;104891;1271;75818;-24
2022/09/15 08:36:16;;;;;;;2.90;2.00;;;;;;;18.64;76.06;97471.15;104652;1271;75954;-24
2022/09/15 08:38:43;;;;;;;2.00;1.40;;;;;;;18.62;76.50;97465.77;104843;1271;74118;-24
2022/09/15 08:41:16;;;;;;;1.80;1.70;;;;;;;19.28;75.07;97471.91;104848;1271;61138;-24
2022/09/15 08:44:08;;;;;;;2.10;1.90;;;;;;;19.34;73.04;97475.81;104797;1271;63022;-25
2022/09/15 08:46:41;;;;;;;2.30;2.10;;;;;;;19.25;73.81;97476.52;105080;1271;74574;-24
2022/09/15 08:49:18;;;;;;;5.80;2.40;;;;;;;19.11;74.15;97481.39;104782;1271;76118;-24
2022/09/15 08:52:28;;;;;;;1.70;1.60;;;;;;;18.77;74.25;97485.67;105047;1271;75392;-24
2022/09/15 08:54:57;;;;;;;1.50;1.40;;;;;;;18.50;75.42;97488.70;104790;1271;64696;-24
2022/09/15 08:57:25;;;;;;;1.90;1.80;;;;;;;18.83;74.96;97486.77;104753;1271;63074;-24
2022/09/15 08:59:53;;;;;;;2.20;2.00;;;;;;;18.90;75.00;97479.70;104826;1271;76440;-24
2022/09/15 09:02:29;;;;;;;2.20;2.10;;;;;;;18.87;74.95;97475.46;104793;1271;76847;-24
2022/09/15 09:05:18;;;;;;;2.50;2.30;;;;;;;18.66;74.89;97467.20;104849;1271;74622;-24
2022/09/15 09:07:59;;;;;;;1.70;1.20;;;;;;;18.45;76.81;97465.52;105034;1271;64559;-24
2022/09/15 09:10:38;;;;;;;3.20;1.40;;;;;;;19.28;75.76;97463.15;104653;1271;63099;-24
2022/09/15 09:13:17;;;;;;;3.70;1.90;;;;;;;19.87;72.92;97460.80;104763;1271;75436;-24
2022/09/15 09:15:59;;;;;;;2.20;2.00;;;;;;;19.79;71.62;97456.19;104764;1271;75908;-24
2022/09/15 09:18:33;;;;;;;2.00;1.90;;;;;;;19.56;73.11;97456.06;104846;1271;74336;-24
2022/09/15 09:21:25;;;;;;;2.00;1.90;;;;;;;19.51;73.28;97451.70;104723;1274;63079;-24
2022/09/15 09:24:16;;;;;;;1.90;1.80;;;;;;;19.35;73.65;97454.83;104751;1271;61870;-24
2022/09/15 09:26:44;;;;;;;2.80;1.70;;;;;;;19.00;74.21;97444.92;104661;1274;76546;-24
2022/09/15 09:29:19;;;;;;;5.50;1.80;;;;;;;19.37;74.33;97449.30;104723;1271;74879;-24
2022/09/15 09:31:48;;;;;;;2.40;2.20;;;;;;;19.53;73.48;97458.26;104664;1271;74483;-24
2022/09/15 09:34:26;;;;;;;2.20;2.00;;;;;;;19.46;73.55;97462.32;104820;1271;63069;-24
2022/09/15 09:36:57;;;;;;;2.50;2.30;;;;;;;19.10;73.64;97467.87;104777;1271;62039;-24
2022/09/15 09:39:26;;;;;;;1.80;1.60;;;;;;;18.53;75.17;97476.40;104878;1271;76423;-24
2022/09/15 09:41:54;;;;;;;4.50;1.80;;;;;;;18.46;76.13;97475.28;104883;1271;76152;-24
2022/09/15 09:44:30;;;;;;;2.50;2.30;;;;;;;18.72;75.35;97472.19;104967;1271;74112;-24
2022/09/15 09:46:58;;;;;;;2.90;2.40;;;;;;;18.71;75.10;97465.94;105089;1271;62994;-24
2022/09/15 09:49:41;;;;;;;4.50;2.80;;;;;;;18.57;75.86;97471.94;104764;1274;61806;-24
2022/09/15 09:52:08;;;;;;;2.10;1.90;;;;;;;18.44;76.37;97467.38;104813;1271;74641;-24
2022/09/15 09:54:35;;;;;;;3.60;1.80;;;;;;;18.63;76.70;97461.67;104711;1275;76079;-25
2022/09/15 09:57:11;;;;;;;2.80;2.60;;;;;;;19.24;74.31;97450.64;104741;1271;73223;-25
2022/09/15 09:59:43;;;;;;;3.10;2.80;;;;;;;19.28;72.95;97448.68;104696;1271;62000;-25
2022/09/15 10:02:11;;;;;;;3.30;3.00;;;;;;;19.01;74.07;97445.60;104671;1271;61224;-24
2022/09/15 10:04:42;;;;;;;3.50;3.10;;;;;;;18.76;75.06;97450.17;105055;1271;76328;-24
2022/09/15 10:07:10;;;;;;;2.60;2.10;;;;;;;18.62;75.43;97457.30;104764;1271;76859;-24
2022/09/15 10:09:37;;;;;;;3.30;2.20;;;;;;;18.86;75.37;97452.52;105115;1271;75078;-25
2022/09/15 10:12:05;;;;;;;2.70;2.30;;;;;;;18.83;74.67;97444.74;105078;1271;61728;-25
2022/09/15 10:14:32;;;;;;;3.10;2.70;;;;;;;18.95;74.73;97442.36;104918;1271;62502;-25
2022/09/15 10:17:15;;;;;;;3.50;2.80;;;;;;;18.90;75.07;97444.84;103579;1271;72989;-24
2022/09/15 10:19:45;;;;;;;;;;;;;;;18.65;76.35;97444.09;104886;1271;75790;-25
2022/09/15 10:22:33;;;;;;;2.60;1.70;;;;;;;18.44;77.07;97445.34;104921;1271;74715;-25
2022/09/15 10:25:17;;;;;;;2.50;2.30;;;;;;;18.77;75.81;97436.73;104752;1271;62842;-24
2022/09/15 10:27:44;;;;;;;3.80;3.00;;;;;;;18.85;75.94;97434.45;104574;1271;62718;-24
2022/09/15 10:30:11;;;;;;;2.90;2.70;;;;;;;19.06;75.40;97436.30;104699;1271;76618;-25
2022/09/15 10:32:38;;;;;;;3.00;2.80;;;;;;;19.14;74.88;97428.71;105058;1271;77425;-25
2022/09/15 10:35:10;;;;;;;4.60;3.10;;;;;;;18.98;75.90;97427.16;104858;1271;75297;-24
2022/09/15 10:37:58;;;;;;;3.00;2.30;;;;;;;18.95;75.91;97425.17;104786;1271;63825;-24
2022/09/15 10:40:47;;;;;;;4.60;2.80;;;;;;;19.22;75.26;97417.66;105109;1271;62899;-25
2022/09/15 10:43:43;;;;;;;3.50;2.90;;;;;;;19.54;74.68;97419.21;105074;1271;75362;-24
2022/09/15 10:46:22;;;;;;;3.20;2.80;;;;;;;19.53;74.59;97419.08;105106;1271;77338;-24
2022/09/15 10:48:57;;;;;;;2.90;2.70;;;;;;;19.49;74.79;97416.48;104884;1271;74507;-25
2022/09/15 10:51:59;;;;;;;1.90;1.80;;;;;;;19.54;75.13;97410.54;104866;1271;64743;-25
2022/09/15 10:54:35;;;;;;;2.80;2.10;;;;;;;20.17;72.69;97404.30;105037;1271;61755;-25
2022/09/15 10:57:10;;;;;;;3.80;2.30;;;;;;;20.53;71.83;97402.10;105065;1271;75669;-25
2022/09/15 10:59:59;;;;;;;3.00;2.70;;;;;;;20.22;71.81;97398.89;104677;1274;75910;-25
2022/09/15 11:02:52;;;;;;;4.00;3.60;;;;;;;19.52;73.79;97396.30;104785;1274;74253;-24
2022/09/15 11:05:47;;;;;;;4.00;3.60;;;;;;;19.03;75.01;97391.98;104790;1274;63143;-24
2022/09/15 11:08:17;;;;;;;2.80;2.60;;;;;;;18.80;76.92;97392.45;104825;1272;62650;-24
2022/09/15 11:11:03;;;;;;;3.30;3.00;;;;;;;19.12;75.89;97390.99;104688;1274;75565;-24
2022/09/15 11:13:43;;;;;;;4.20;3.80;;;;;;;18.99;76.73;97391.98;105005;1272;76936;-24
2022/09/15 11:16:42;;;;;;;4.20;3.80;;;;;;;18.86;78.04;97389.54;104883;1274;74401;-25
2022/09/15 11:25:29;;;;;;;5.30;2.60;;;;;;;18.36;80.75;97385.00;102664;1296;617215;-23
2022/09/15 11:27:58;;;;;;;3.50;3.20;;;;;;;18.98;78.65;97385.86;104656;1278;61161;-29
2022/09/15 11:30:32;;;;;;;4.30;3.70;;;;;;;19.19;77.63;97384.66;104715;1277;61014;-23
2022/09/15 11:33:05;;;;;;;3.90;3.60;;;;;;;19.02;78.06;97379.00;104536;1277;74028;-23
2022/09/15 11:35:36;;;;;;;4.00;3.40;;;;;;;18.81;79.03;97380.30;104563;1280;77011;-23
2022/09/15 11:39:56;;;;;;;3.40;3.10;;;;;;;18.82;79.85;97378.84;102304;1300;615672;-25
2022/09/15 12:07:39;;;;;;;3.50;2.70;;;;;;;17.61;86.61;97369.06;102326;1300;613728;-23
2022/09/15 12:10:30;;;;;;;5.60;3.20;;;;;;;18.45;83.42;97368.83;104290;1284;61501;-24
2022/09/15 12:12:58;;;;;;;4.40;3.40;;;;;;;18.89;80.84;97366.23;104304;1284;60972;-24
2022/09/15 12:15:26;;;;;;;5.20;3.60;;;;;;;19.05;80.22;97370.01;104282;1284;74058;-23
2022/09/15 12:18:18;;;;;;;4.40;4.00;;;;;;;19.09;79.74;97363.95;104464;1284;75868;-24